createdAt,value
2022-09-26T00:01:33.307Z,94152.41
2022-09-26T00:04:04.283Z,94121.06
2022-09-26T00:06:31.147Z,94114.44
2022-09-26T00:08:59.044Z,94156.75
2022-09-26T00:11:30.491Z,94118.69
2022-09-26T00:14:00.682Z,94120.59
2022-09-26T00:16:27.760Z,94097.38
2022-09-26T00:18:57.235Z,94156.69
2022-09-26T00:21:25.598Z,94106.31
2022-09-26T00:23:53.362Z,94105.53
2022-09-26T00:26:21.860Z,94107.38
2022-09-26T00:28:48.915Z,94105.88
2022-09-26T00:31:20.413Z,94100.44
2022-09-26T00:33:47.218Z,94119.63
2022-09-26T00:36:14.526Z,94117.56
2022-09-26T00:38:41.617Z,94125.88
2022-09-26T00:41:09.558Z,94147.03
2022-09-26T00:43:42.445Z,94087.63
2022-09-26T00:46:27.514Z,94074.78
2022-09-26T00:49:16.071Z,94084.09
2022-09-26T00:51:47.801Z,94133.63
2022-09-26T00:54:17.607Z,94116.03
2022-09-26T00:56:47.291Z,94092.72
2022-09-26T00:59:37.160Z,94100.75
2022-09-26T01:02:05.281Z,94100.09
2022-09-26T01:04:35.614Z,94135.38
2022-09-26T01:07:07.406Z,94132.44
2022-09-26T01:09:34.234Z,94125.06
2022-09-26T01:12:03.438Z,94117.50
2022-09-26T01:14:31.691Z,94108.50
2022-09-26T01:16:58.784Z,94115.69
2022-09-26T01:19:36.309Z,94128.88
2022-09-26T01:22:21.173Z,94093.53
2022-09-26T01:24:50.859Z,94102.00
2022-09-26T01:27:27.566Z,94120.69
2022-09-26T01:30:28.609Z,94072.91
2022-09-26T01:33:10.505Z,94091.69
2022-09-26T01:35:43.410Z,94101.53
2022-09-26T01:38:16.165Z,94071.38
2022-09-26T01:41:02.058Z,94105.03
2022-09-26T01:43:41.625Z,94093.63
2022-09-26T01:46:25.702Z,94074.81
2022-09-26T01:49:03.446Z,94107.28
2022-09-26T01:51:37.320Z,94109.91
2022-09-26T01:54:13.916Z,94100.38
2022-09-26T01:56:43.435Z,94077.03
2022-09-26T01:59:24.026Z,94115.97
2022-09-26T02:02:00.692Z,94092.88
2022-09-26T02:04:35.646Z,94072.38
2022-09-26T02:07:20.823Z,94079.09
2022-09-26T02:09:59.375Z,94085.25
2022-09-26T02:12:36.700Z,94087.75
2022-09-26T02:15:08.194Z,94063.22
2022-09-26T02:17:46.478Z,94092.78
2022-09-26T02:20:23.197Z,94093.38
2022-09-26T02:22:50.230Z,94022.41
2022-09-26T02:25:17.133Z,94036.78
2022-09-26T02:27:44.232Z,94070.59
2022-09-26T02:30:12.347Z,94078.88
2022-09-26T02:32:40.536Z,94080.06
2022-09-26T02:35:26.979Z,94073.28
2022-09-26T02:37:54.231Z,94074.13
2022-09-26T02:40:33.389Z,94020.31
2022-09-26T02:43:26.957Z,94085.84
2022-09-26T02:46:21.734Z,94057.59
2022-09-26T02:48:56.662Z,94048.00
2022-09-26T02:51:53.397Z,94078.50
2022-09-26T02:54:43.822Z,94036.81
2022-09-26T02:57:42.686Z,94079.44
2022-09-26T03:00:51.417Z,94066.88
2022-09-26T03:03:24.351Z,94026.34
2022-09-26T03:05:57.040Z,94039.47
2022-09-26T03:08:27.363Z,94011.94
2022-09-26T03:10:57.135Z,94068.69
2022-09-26T03:13:26.902Z,94088.25
2022-09-26T03:15:58.606Z,94063.03
2022-09-26T03:18:35.482Z,94021.28
2022-09-26T03:21:02.526Z,94044.81
2022-09-26T03:23:29.766Z,94011.97
2022-09-26T03:26:04.666Z,94051.94
2022-09-26T03:28:37.425Z,94055.25
2022-09-26T03:31:05.250Z,94072.50
2022-09-26T03:33:43.150Z,94028.25
2022-09-26T03:36:09.893Z,94014.69
2022-09-26T03:38:37.483Z,94006.44
2022-09-26T03:41:13.199Z,94058.19
2022-09-26T03:44:04.608Z,94062.53
2022-09-26T03:46:52.309Z,94030.22
2022-09-26T03:49:19.027Z,94056.63
2022-09-26T03:51:46.243Z,94073.34
2022-09-26T03:54:13.517Z,94007.28
2022-09-26T03:56:41.385Z,94051.25
2022-09-26T03:59:09.218Z,94059.22
2022-09-26T04:01:36.662Z,94053.19
2022-09-26T04:04:03.513Z,94036.72
2022-09-26T04:06:30.481Z,94044.22
2022-09-26T04:08:59.348Z,94025.28
2022-09-26T04:11:27.557Z,94053.75
2022-09-26T04:13:55.406Z,94006.56
2022-09-26T04:16:27.390Z,94062.06
2022-09-26T04:19:03.282Z,94010.38
2022-09-26T04:21:30.144Z,94042.91
2022-09-26T04:23:59.116Z,94043.81
2022-09-26T04:26:25.870Z,94032.19
2022-09-26T04:28:55.919Z,93980.69
2022-09-26T04:31:28.598Z,94040.06
2022-09-26T04:34:05.098Z,94015.28
2022-09-26T04:36:32.713Z,94060.97
2022-09-26T04:39:00.774Z,94029.41
2022-09-26T04:41:29.414Z,94017.59
2022-09-26T04:43:57.911Z,94022.97
2022-09-26T04:46:30.764Z,94033.38
2022-09-26T04:49:01.023Z,94033.50
2022-09-26T04:51:29.681Z,93998.16
2022-09-26T04:53:56.451Z,94032.00
2022-09-26T04:56:28.170Z,93958.72
2022-09-26T04:58:56.973Z,93974.66
2022-09-26T05:01:27.053Z,94011.22
2022-09-26T05:04:07.277Z,93997.31
2022-09-26T05:06:34.242Z,93989.16
2022-09-26T05:09:04.272Z,93986.34
2022-09-26T05:11:50.057Z,94004.81
2022-09-26T05:14:17.365Z,94006.81
2022-09-26T05:16:45.200Z,93983.16
2022-09-26T05:19:14.525Z,93998.78
2022-09-26T05:22:16.518Z,94035.41
2022-09-26T05:25:02.013Z,94022.31
2022-09-26T05:27:28.871Z,93996.22
2022-09-26T05:29:56.465Z,94017.78
2022-09-26T05:32:24.035Z,94025.56
2022-09-26T05:34:51.971Z,94020.84
2022-09-26T05:37:21.023Z,94015.16
2022-09-26T05:40:07.152Z,94029.94
2022-09-26T05:42:38.229Z,94028.91
2022-09-26T05:45:05.815Z,94035.97
2022-09-26T05:47:36.731Z,94014.47
2022-09-26T05:50:09.973Z,94003.06
2022-09-26T05:52:39.370Z,94018.53
2022-09-26T05:55:07.505Z,94023.59
2022-09-26T05:58:01.482Z,94024.03
2022-09-26T06:00:48.712Z,93993.63
2022-09-26T06:03:16.530Z,94012.63
2022-09-26T06:05:54.005Z,93966.84
2022-09-26T06:08:28.539Z,93987.13
2022-09-26T06:11:16.524Z,94004.09
2022-09-26T06:13:45.903Z,93958.16
2022-09-26T06:16:19.386Z,94009.13
2022-09-26T06:18:49.232Z,94011.66
2022-09-26T06:21:17.929Z,94007.50
2022-09-26T06:23:46.933Z,94016.34
2022-09-26T06:26:25.386Z,94009.47
2022-09-26T06:28:59.403Z,94012.34
2022-09-26T06:31:28.783Z,93998.69
2022-09-26T06:34:13.072Z,94012.09
2022-09-26T06:36:49.104Z,93988.75
2022-09-26T06:39:16.052Z,94018.63
2022-09-26T06:41:44.713Z,94005.41
2022-09-26T06:44:37.698Z,94030.22
2022-09-26T06:47:30.002Z,94019.34
2022-09-26T06:50:27.170Z,93976.19
2022-09-26T06:52:57.087Z,94012.81
2022-09-26T06:55:25.013Z,94008.63
2022-09-26T06:57:54.074Z,94028.09
2022-09-26T07:00:24.737Z,94030.34
2022-09-26T07:03:17.955Z,94022.41
2022-09-26T07:05:56.774Z,94020.66
2022-09-26T07:08:43.393Z,94014.78
2022-09-26T07:11:41.594Z,94032.94
2022-09-26T07:14:02.182Z,94000.66
2022-09-26T07:16:30.518Z,94015.63
2022-09-26T07:19:18.709Z,94015.81
2022-09-26T07:22:01.119Z,94022.28
2022-09-26T07:24:35.055Z,94020.38
2022-09-26T07:27:03.241Z,94028.47
2022-09-26T07:29:30.135Z,94032.16
2022-09-26T07:31:57.061Z,94016.63
2022-09-26T07:34:45.185Z,94006.22
2022-09-26T07:37:13.487Z,94022.38
2022-09-26T07:39:40.227Z,94039.19
2022-09-26T07:42:07.361Z,94007.50
2022-09-26T07:45:17.500Z,93998.94
2022-09-26T07:47:40.802Z,93980.34
2022-09-26T07:50:23.583Z,93975.63
2022-09-26T07:53:04.894Z,93977.59
2022-09-26T07:55:31.649Z,94008.41
2022-09-26T07:58:18.568Z,93993.22
2022-09-26T08:00:45.477Z,93994.84
2022-09-26T08:03:28.634Z,93987.31
2022-09-26T08:06:00.639Z,94003.28
2022-09-26T08:08:30.521Z,93966.91
2022-09-26T08:11:03.941Z,93992.69
2022-09-26T08:13:51.451Z,94029.09
2022-09-26T08:16:39.645Z,94004.09
2022-09-26T08:19:07.944Z,93996.22
2022-09-26T08:21:35.377Z,93977.34
2022-09-26T08:24:02.544Z,93984.13
2022-09-26T08:26:32.063Z,93957.03
2022-09-26T08:29:12.610Z,94010.09
2022-09-26T08:31:40.246Z,93985.09
2022-09-26T08:34:08.799Z,94000.00
2022-09-26T08:36:37.118Z,93987.34
2022-09-26T08:39:36.259Z,93948.53
2022-09-26T08:43:02.725Z,93996.47
2022-09-26T08:46:37.527Z,93995.91
2022-09-26T08:49:30.114Z,94023.56
2022-09-26T08:52:01.646Z,94007.66
2022-09-26T08:54:42.394Z,94004.56
2022-09-26T08:57:21.106Z,93995.53
2022-09-26T08:59:50.334Z,94001.06
2022-09-26T09:02:19.329Z,93987.16
2022-09-26T09:05:11.471Z,93976.19
2022-09-26T09:07:42.275Z,93949.81
2022-09-26T09:10:17.998Z,93975.53
2022-09-26T09:13:34.341Z,93954.44
2022-09-26T09:16:38.112Z,93947.69
2022-09-26T09:19:21.410Z,93954.69
2022-09-26T09:22:49.807Z,93909.28
2022-09-26T09:25:56.319Z,93977.69
2022-09-26T09:28:26.043Z,93958.09
2022-09-26T09:31:02.298Z,93974.06
2022-09-26T09:33:52.416Z,93950.72
2022-09-26T09:36:32.279Z,93935.06
2022-09-26T09:39:29.345Z,93913.97
2022-09-26T09:42:19.493Z,93923.22
2022-09-26T09:44:55.518Z,93953.34
2022-09-26T09:47:22.330Z,93971.03
2022-09-26T09:49:50.541Z,93942.63
2022-09-26T09:52:36.183Z,93938.75
2022-09-26T09:55:10.176Z,93955.28
2022-09-26T09:57:46.739Z,93990.63
2022-09-26T10:00:24.071Z,93970.41
2022-09-26T10:03:25.034Z,93932.69
2022-09-26T10:05:58.412Z,93956.44
2022-09-26T10:08:42.847Z,93942.63
2022-09-26T10:11:41.506Z,93962.94
2022-09-26T10:14:36.019Z,93946.44
2022-09-26T10:17:12.094Z,93930.91
2022-09-26T10:20:01.952Z,93942.03
2022-09-26T10:22:37.619Z,93938.91
2022-09-26T10:25:15.594Z,93922.81
2022-09-26T10:27:50.177Z,93920.59
2022-09-26T10:30:20.127Z,93949.59
2022-09-26T10:32:56.406Z,93920.84
2022-09-26T10:35:44.388Z,93927.97
2022-09-26T10:38:24.218Z,93937.19
2022-09-26T10:41:02.294Z,93931.25
2022-09-26T10:43:35.441Z,93911.34
2022-09-26T10:46:24.925Z,93896.03
2022-09-26T10:49:15.038Z,93890.34
2022-09-26T10:52:29.923Z,93904.41
2022-09-26T10:55:06.316Z,93909.03
2022-09-26T10:57:45.301Z,93888.47
2022-09-26T11:00:40.301Z,93876.94
2022-09-26T11:03:17.755Z,93872.28
2022-09-26T11:06:28.774Z,93880.53
2022-09-26T11:09:04.662Z,93861.47
2022-09-26T11:11:51.512Z,93866.00
2022-09-26T11:14:29.139Z,93876.09
2022-09-26T11:17:23.015Z,93900.75
2022-09-26T11:20:00.393Z,93875.31
2022-09-26T11:22:51.837Z,93830.50
2022-09-26T11:25:31.546Z,93833.25
2022-09-26T11:28:07.183Z,93854.03
2022-09-26T11:31:01.796Z,93834.19
2022-09-26T11:33:32.524Z,93872.03
2022-09-26T11:36:36.118Z,93875.31
2022-09-26T11:39:27.817Z,93862.97
2022-09-26T11:42:06.815Z,93848.78
2022-09-26T11:44:54.293Z,93880.34
2022-09-26T11:47:52.883Z,93838.38
2022-09-26T11:50:39.680Z,93851.25
2022-09-26T11:53:26.658Z,93844.03
2022-09-26T11:56:08.156Z,93866.06
2022-09-26T11:58:53.558Z,93844.31
2022-09-26T12:01:38.801Z,93809.16
2022-09-26T12:04:29.070Z,93798.00
2022-09-26T12:07:16.418Z,93837.59
2022-09-26T12:10:13.993Z,93812.13
2022-09-26T12:13:19.802Z,93804.84
2022-09-26T12:15:55.156Z,93822.22
2022-09-26T12:18:40.241Z,93812.63
2022-09-26T12:21:31.741Z,93831.97
2022-09-26T12:24:14.169Z,93804.22
2022-09-26T12:27:08.911Z,93821.91
2022-09-26T12:30:00.652Z,93834.81
2022-09-26T12:33:06.060Z,93793.03
2022-09-26T12:35:43.838Z,93816.69
2022-09-26T12:38:26.009Z,93812.03
2022-09-26T12:41:03.047Z,93812.84
2022-09-26T12:43:44.898Z,93800.47
2022-09-26T12:46:33.577Z,93774.03
2022-09-26T12:49:03.655Z,93784.97
2022-09-26T12:51:49.646Z,93790.16
2022-09-26T12:54:41.013Z,93773.56
2022-09-26T12:57:17.327Z,93802.94
2022-09-26T13:00:10.029Z,93785.75
2022-09-26T13:02:39.818Z,93784.44
2022-09-26T13:05:22.594Z,93790.38
2022-09-26T13:08:19.770Z,93812.22
2022-09-26T13:11:15.704Z,93789.13
2022-09-26T13:14:18.512Z,93781.31
2022-09-26T13:17:06.456Z,93784.28
2022-09-26T13:19:40.824Z,93780.31
2022-09-26T13:22:29.431Z,93766.41
2022-09-26T13:25:10.989Z,93767.59
2022-09-26T13:27:44.179Z,93767.59
2022-09-26T13:30:26.352Z,93780.28
2022-09-26T13:33:03.573Z,93761.03
2022-09-26T13:35:35.911Z,93739.03
2022-09-26T13:38:22.181Z,93751.50
2022-09-26T13:41:20.928Z,93741.75
2022-09-26T13:44:09.168Z,93731.22
2022-09-26T13:47:13.404Z,93732.34
2022-09-26T13:49:51.972Z,93742.22
2022-09-26T13:52:52.594Z,93730.50
2022-09-26T13:55:21.974Z,93748.03
2022-09-26T13:58:07.506Z,93712.16
2022-09-26T14:00:40.584Z,93736.69
2022-09-26T14:03:09.907Z,93706.31
2022-09-26T14:05:43.434Z,93706.31
2022-09-26T14:08:44.091Z,93716.34
2022-09-26T14:11:19.921Z,93719.53
2022-09-26T14:13:48.533Z,93733.94
2022-09-26T14:16:27.079Z,93706.50
2022-09-26T14:19:29.292Z,93703.25
2022-09-26T14:22:20.965Z,93729.06
2022-09-26T14:24:48.881Z,93700.75
2022-09-26T14:27:15.531Z,93710.81
2022-09-26T14:29:45.015Z,93708.28
2022-09-26T14:32:16.296Z,93693.50
2022-09-26T14:34:56.779Z,93714.72
2022-09-26T14:37:24.220Z,93703.81
2022-09-26T14:40:03.532Z,93701.06
2022-09-26T14:42:42.130Z,93683.66
2022-09-26T14:45:22.947Z,93689.16
2022-09-26T14:48:01.621Z,93696.94
2022-09-26T14:50:34.460Z,93693.19
2022-09-26T14:53:24.042Z,93698.13
2022-09-26T14:55:55.711Z,93707.50
2022-09-26T14:58:37.682Z,93687.25
2022-09-26T15:01:18.915Z,93672.31
2022-09-26T15:04:03.104Z,93654.31
2022-09-26T15:06:36.275Z,93666.16
2022-09-26T15:09:10.482Z,93671.47
2022-09-26T15:11:51.641Z,93659.00
2022-09-26T15:14:55.475Z,93654.34
2022-09-26T15:17:32.786Z,93659.28
2022-09-26T15:20:02.686Z,93629.56
2022-09-26T15:22:31.120Z,93663.75
2022-09-26T15:25:13.904Z,93632.78
2022-09-26T15:27:46.099Z,93629.50
2022-09-26T15:30:19.898Z,93638.69
2022-09-26T15:32:50.405Z,93625.78
2022-09-26T15:35:17.848Z,93617.22
2022-09-26T15:37:45.972Z,93629.47
2022-09-26T15:40:22.973Z,93635.91
2022-09-26T15:43:06.154Z,93626.59
2022-09-26T15:45:55.498Z,93629.25
2022-09-26T15:48:25.391Z,93620.59
2022-09-26T15:51:08.998Z,93624.69
2022-09-26T15:53:41.926Z,93615.41
2022-09-26T15:56:14.374Z,93598.72
2022-09-26T15:59:00.917Z,93623.34
2022-09-26T16:01:32.021Z,93609.53
2022-09-26T16:04:03.083Z,93605.91
2022-09-26T16:06:37.091Z,93599.75
2022-09-26T16:09:22.224Z,93585.31
2022-09-26T16:11:54.428Z,93604.03
2022-09-26T16:14:26.914Z,93597.25
2022-09-26T16:17:21.718Z,93568.66
2022-09-26T16:19:58.279Z,93599.53
2022-09-26T16:22:40.566Z,93606.91
2022-09-26T16:25:19.476Z,93586.72
2022-09-26T16:27:58.789Z,93591.38
2022-09-26T16:30:27.215Z,93576.09
2022-09-26T16:33:24.748Z,93592.56
2022-09-26T16:35:51.793Z,93591.69
2022-09-26T16:38:23.285Z,93598.34
2022-09-26T16:40:52.657Z,93597.81
2022-09-26T16:43:27.354Z,93601.97
2022-09-26T16:46:14.004Z,93607.06
2022-09-26T16:48:53.009Z,93597.69
2022-09-26T16:52:09.891Z,93586.56
2022-09-26T16:54:37.051Z,93590.53
2022-09-26T16:57:05.857Z,93585.66
2022-09-26T16:59:32.625Z,93580.69
2022-09-26T17:02:02.510Z,93587.19
2022-09-26T17:04:31.580Z,93593.19
2022-09-26T17:06:59.777Z,93592.78
2022-09-26T17:09:29.930Z,93587.97
2022-09-26T17:12:01.686Z,93573.16
2022-09-26T17:14:40.632Z,93590.09
2022-09-26T17:17:16.163Z,93581.28
2022-09-26T17:19:45.287Z,93581.50
2022-09-26T17:22:18.629Z,93586.19
2022-09-26T17:24:47.945Z,93573.47
2022-09-26T17:27:22.841Z,93567.78
2022-09-26T17:29:51.912Z,93588.06
2022-09-26T17:32:28.557Z,93595.31
2022-09-26T17:35:21.895Z,93583.94
2022-09-26T17:37:48.966Z,93595.16
2022-09-26T17:40:24.379Z,93598.88
2022-09-26T17:42:58.114Z,93605.38
2022-09-26T17:45:31.252Z,93602.88
2022-09-26T17:48:04.458Z,93603.91
2022-09-26T17:50:33.461Z,93604.69
2022-09-26T17:53:02.258Z,93610.53
2022-09-26T17:55:30.990Z,93607.09
2022-09-26T17:57:58.501Z,93628.88
2022-09-26T18:00:30.089Z,93606.34
2022-09-26T18:03:01.510Z,93611.97
2022-09-26T18:05:37.875Z,93595.84
2022-09-26T18:08:13.020Z,93606.44
2022-09-26T18:10:44.786Z,93606.34
2022-09-26T18:13:15.455Z,93602.50
2022-09-26T18:15:42.391Z,93607.19
2022-09-26T18:18:16.364Z,93615.63
2022-09-26T18:20:44.202Z,93595.22
2022-09-26T18:23:16.412Z,93605.44
2022-09-26T18:25:47.257Z,93593.44
2022-09-26T18:28:16.805Z,93578.22
2022-09-26T18:30:48.290Z,93586.19
2022-09-26T18:33:16.765Z,93597.69
2022-09-26T18:35:45.473Z,93598.75
2022-09-26T18:38:15.511Z,93614.09
2022-09-26T18:40:51.752Z,93608.34
2022-09-26T18:43:24.016Z,93597.56
2022-09-26T18:45:50.984Z,93582.75
2022-09-26T18:48:25.378Z,93571.03
2022-09-26T18:50:53.585Z,93576.97
2022-09-26T18:53:23.337Z,93592.41
2022-09-26T18:56:08.831Z,93592.00
2022-09-26T18:58:36.013Z,93612.44
2022-09-26T19:01:06.982Z,93594.19
2022-09-26T19:03:38.015Z,93591.28
2022-09-26T19:06:11.863Z,93606.84
2022-09-26T19:08:41.730Z,93589.28
2022-09-26T19:11:14.705Z,93590.88
2022-09-26T19:13:46.319Z,93603.84
2022-09-26T19:16:13.781Z,93591.59
2022-09-26T19:18:41.213Z,93590.25
2022-09-26T19:21:34.360Z,93596.28
2022-09-26T19:24:29.188Z,93581.53
2022-09-26T19:27:03.601Z,93576.94
2022-09-26T19:29:38.771Z,93594.53
2022-09-26T19:32:07.085Z,93594.69
2022-09-26T19:34:34.084Z,93576.47
2022-09-26T19:37:03.056Z,93589.34
2022-09-26T19:39:30.234Z,93568.84
2022-09-26T19:41:56.940Z,93591.38
2022-09-26T19:44:24.443Z,93575.03
2022-09-26T19:46:51.409Z,93555.38
2022-09-26T19:49:19.899Z,93578.47
2022-09-26T19:51:47.268Z,93571.28
2022-09-26T19:54:17.672Z,93572.47
2022-09-26T19:56:45.711Z,93577.19
2022-09-26T19:59:14.070Z,93568.78
2022-09-26T20:01:42.502Z,93553.28
2022-09-26T20:04:19.272Z,93542.44
2022-09-26T20:06:46.918Z,93522.66
2022-09-26T20:09:16.942Z,93523.19
2022-09-26T20:11:44.343Z,93542.94
2022-09-26T20:14:26.542Z,93540.66
2022-09-26T20:16:56.907Z,93537.22
2022-09-26T20:19:36.521Z,93529.41
2022-09-26T20:22:07.499Z,93522.75
2022-09-26T20:24:38.179Z,93524.72
2022-09-26T20:27:08.414Z,93515.59
2022-09-26T20:29:55.533Z,93498.63
2022-09-26T20:32:22.615Z,93511.59
2022-09-26T20:34:49.562Z,93517.38
2022-09-26T20:37:17.270Z,93514.53
2022-09-26T20:39:44.366Z,93496.91
2022-09-26T20:42:16.563Z,93513.63
2022-09-26T20:44:44.865Z,93503.75
2022-09-26T20:47:19.769Z,93492.38
2022-09-26T20:49:53.983Z,93502.09
2022-09-26T20:52:26.789Z,93493.22
2022-09-26T20:54:55.290Z,93494.44
2022-09-26T20:57:24.126Z,93493.38
2022-09-26T20:59:51.364Z,93475.19
2022-09-26T21:02:35.938Z,93480.66
2022-09-26T21:05:03.575Z,93474.66
2022-09-26T21:07:32.199Z,93451.72
2022-09-26T21:09:59.081Z,93453.97
2022-09-26T21:12:25.953Z,93455.88
2022-09-26T21:14:52.897Z,93452.25
2022-09-26T21:17:28.123Z,93455.53
2022-09-26T21:19:56.017Z,93440.03
2022-09-26T21:23:01.310Z,93430.22
2022-09-26T21:25:31.063Z,93443.00
2022-09-26T21:28:06.146Z,93436.75
2022-09-26T21:30:34.058Z,93435.59
2022-09-26T21:33:01.019Z,93432.72
2022-09-26T21:35:30.984Z,93435.63
2022-09-26T21:38:00.330Z,93427.06
2022-09-26T21:40:29.878Z,93436.44
2022-09-26T21:43:03.507Z,93426.00
2022-09-26T21:45:30.285Z,93439.06
2022-09-26T21:47:58.082Z,93421.91
2022-09-26T21:50:29.643Z,93422.47
2022-09-26T21:53:04.548Z,93418.91
2022-09-26T21:55:38.730Z,93420.22
2022-09-26T21:58:12.916Z,93414.91
2022-09-26T22:00:40.408Z,93411.78
2022-09-26T22:03:07.433Z,93415.09
2022-09-26T22:05:34.204Z,93403.50
2022-09-26T22:08:01.887Z,93404.44
2022-09-26T22:10:29.409Z,93385.53
2022-09-26T22:12:56.404Z,93383.09
2022-09-26T22:15:23.334Z,93376.09
2022-09-26T22:17:50.207Z,93364.34
2022-09-26T22:20:17.216Z,93358.16
2022-09-26T22:22:44.047Z,93354.69
2022-09-26T22:25:10.875Z,93343.72
2022-09-26T22:27:38.524Z,93349.97
2022-09-26T22:30:06.585Z,93353.91
2022-09-26T22:32:33.621Z,93354.81
2022-09-26T22:35:00.395Z,93361.03
2022-09-26T22:37:27.135Z,93340.00
2022-09-26T22:39:54.316Z,93342.53
2022-09-26T22:42:21.260Z,93330.41
2022-09-26T22:44:48.056Z,93322.97
2022-09-26T22:47:14.808Z,93320.31
2022-09-26T22:49:41.698Z,93312.75
2022-09-26T22:52:08.681Z,93313.16
2022-09-26T22:54:35.470Z,93301.13
2022-09-26T22:57:02.229Z,93294.81
2022-09-26T22:59:28.979Z,93293.72
2022-09-26T23:01:58.849Z,93284.66
2022-09-26T23:04:45.878Z,93271.47
2022-09-26T23:07:14.286Z,93275.81
2022-09-26T23:09:41.097Z,93275.13
2022-09-26T23:12:07.970Z,93274.59
2022-09-26T23:14:34.753Z,93266.38
2022-09-26T23:17:02.142Z,93264.72
2022-09-26T23:19:28.999Z,93255.06
2022-09-26T23:21:57.631Z,93251.63
2022-09-26T23:24:24.926Z,93248.09
2022-09-26T23:26:51.696Z,93234.91
2022-09-26T23:29:18.554Z,93243.06
2022-09-26T23:31:45.705Z,93235.31
2022-09-26T23:34:12.519Z,93237.19
2022-09-26T23:36:39.439Z,93244.16
2022-09-26T23:39:06.432Z,93235.75
2022-09-26T23:41:33.171Z,93216.97
2022-09-26T23:44:00.024Z,93237.44
2022-09-26T23:46:27.182Z,93215.47
2022-09-26T23:48:54.574Z,93225.41
2022-09-26T23:51:21.614Z,93216.63
2022-09-26T23:53:48.786Z,93218.84
2022-09-26T23:56:15.677Z,93218.66
2022-09-26T23:58:42.926Z,93202.13
